MSSS/SAL METAR and TAF weather

Enter ICAO airport designator
Station Type Date Time Source
MSSS METAR 2022/11/26 12:50 UTC NOAA

MSSS 261250Z 35002KT CAVOK 21/21 Q1016 A3002


Station Type Date Time Source
MSSS Decoded METAR 2022/11/26 12:50 UTC NOAA

San Salvador / Ilopango, El Salvador (MSSS) 13-42N 089-07W 621M
Nov 26, 2022 - 07:50 AM EST / 2022.11.26 1250 UTC
Wind: from the N (350 degrees) at 2 MPH (2 KT):0
Visibility: greater than 7 mile(s):0
Temperature: 69 F (21 C)
Dew Point: 69 F (21 C)
Relative Humidity: 100%
Pressure (altimeter): 30.02 in. Hg (1016 hPa)
ob: MSSS 261250Z 35002KT CAVOK 21/21 Q1016 A3002
cycle: 13

Station Type Date Time Source
MSSS TAF 2022/11/27 06:13 UTC NOAA

TAF MSSS 270325Z 2706/2806 18008KT 9999 FEW027 FEW040CB TX29/2721Z TN20/2712Z PROB30
TEMPO 2707/2709 34006KT 6000 TSRA FEW017 FEW037CB SCT047
FM270900 34005KT CAVOK
FM271600 13008KT 9999 SCT030 FEW040TCU
TEMPO 2720/2724 07012KT 5000 TSRA BKN020 SCT040CB
FM280000 34005KT 9999 FEW020

Example: see airport list